Swan Valley, Idaho
Current Conditions -  °F | °C
As of 5:56 PM on Tuesday 21 Oct 2014 (Local Time) from KDIJ Reporting Station
Overcast Overcast  
Wind Chill:   Ceiling: 5000
Heat Index:   Visibility: 10mi
Dew Point: -2°   Wind: 10mph
Humidity: 54%   Direction: 200°SSW
Pressure: 30.06"   Gusts: NA
Location:  43.46°N, 111.34°W
Report Text: KDIJ 212356Z AUTO 20009KT 10SM BKN050 OVC055 07/M02 A3006 RMK AO2 53007 60004 T00721016 10083 20033 SLP123
Loading
Personal Weather Stations






























Interactive Weather Map
Tropical Storm Tracking
New forecast layout! Learn more

10-Day Weather Forecast

Advertisements
Track Severe Weather on mobile